createdAt,value
2022-08-06T00:02:25.888Z,101174.81
2022-08-06T00:05:00.597Z,101168.00
2022-08-06T00:07:28.366Z,101170.09
2022-08-06T00:10:01.672Z,101166.53
2022-08-06T00:12:32.311Z,101179.75
2022-08-06T00:15:00.178Z,101174.81
2022-08-06T00:17:31.470Z,101174.94
2022-08-06T00:20:01.276Z,101179.03
2022-08-06T00:22:29.051Z,101186.56
2022-08-06T00:24:56.656Z,101185.28
2022-08-06T00:27:29.481Z,101187.31
2022-08-06T00:30:14.867Z,101189.94
2022-08-06T00:32:51.283Z,101195.44
2022-08-06T00:35:21.802Z,101203.03
2022-08-06T00:37:57.819Z,101205.56
2022-08-06T00:40:30.887Z,101199.50
2022-08-06T00:43:06.345Z,101202.44
2022-08-06T00:45:38.350Z,101202.00
2022-08-06T00:48:23.169Z,101213.31
2022-08-06T00:51:00.712Z,101209.81
2022-08-06T00:53:27.964Z,101211.09
2022-08-06T00:56:08.910Z,101216.31
2022-08-06T00:58:40.723Z,101222.94
2022-08-06T01:01:16.728Z,101219.69
2022-08-06T01:03:51.775Z,101218.91
2022-08-06T01:06:55.599Z,101227.38
2022-08-06T01:09:09.986Z,101238.94
2022-08-06T01:11:38.396Z,101234.50
2022-08-06T01:14:05.864Z,101226.50
2022-08-06T01:16:49.090Z,101229.66
2022-08-06T01:19:29.306Z,101228.84
2022-08-06T01:22:31.575Z,101223.50
2022-08-06T01:25:46.168Z,101233.13
2022-08-06T01:28:28.383Z,101236.69
2022-08-06T01:31:29.996Z,101230.78
2022-08-06T01:34:15.617Z,101237.22
2022-08-06T01:36:48.943Z,101245.66
2022-08-06T01:39:21.514Z,101230.13
2022-08-06T01:41:59.161Z,101244.94
2022-08-06T01:44:40.073Z,101248.63
2022-08-06T01:47:16.667Z,101252.06
2022-08-06T01:50:01.725Z,101251.53
2022-08-06T01:52:34.552Z,101249.84
2022-08-06T01:55:02.823Z,101255.00
2022-08-06T01:58:09.973Z,101252.66
2022-08-06T02:00:29.697Z,101251.72
2022-08-06T02:03:04.155Z,101243.06
2022-08-06T02:05:33.474Z,101247.22
2022-08-06T02:08:36.923Z,101239.50
2022-08-06T02:12:01.042Z,101247.44
2022-08-06T02:13:58.252Z,101246.91
2022-08-06T02:16:29.244Z,101252.53
2022-08-06T02:18:57.619Z,101250.84
2022-08-06T02:21:32.894Z,101250.94
2022-08-06T02:24:03.691Z,101254.75
2022-08-06T02:26:32.954Z,101251.47
2022-08-06T02:29:02.650Z,101247.09
2022-08-06T02:31:29.449Z,101250.09
2022-08-06T02:34:14.904Z,101247.94
2022-08-06T02:36:50.248Z,101243.59
2022-08-06T02:39:30.232Z,101247.13
2022-08-06T02:42:18.776Z,101247.25
2022-08-06T02:45:00.285Z,101253.78
2022-08-06T02:48:01.167Z,101253.03
2022-08-06T02:50:41.628Z,101250.06
2022-08-06T02:53:24.265Z,101255.84
2022-08-06T02:56:00.724Z,101263.13
2022-08-06T02:58:45.450Z,101264.44
2022-08-06T03:01:29.059Z,101274.59
2022-08-06T03:04:00.110Z,101265.06
2022-08-06T03:06:30.705Z,101262.00
2022-08-06T03:08:58.926Z,101272.53
2022-08-06T03:11:31.196Z,101274.41
2022-08-06T03:14:31.777Z,101270.69
2022-08-06T03:16:52.325Z,101268.28
2022-08-06T03:19:57.519Z,101277.63
2022-08-06T03:22:11.669Z,101271.34
2022-08-06T03:24:47.009Z,101272.38
2022-08-06T03:27:17.290Z,101284.69
2022-08-06T03:29:49.761Z,101286.16
2022-08-06T03:32:51.194Z,101290.75
2022-08-06T03:35:49.087Z,101304.84
2022-08-06T03:38:02.681Z,101295.13
2022-08-06T03:40:31.425Z,101298.63
2022-08-06T03:43:00.496Z,101293.91
2022-08-06T03:45:45.291Z,101296.88
2022-08-06T03:48:36.250Z,101302.34
2022-08-06T03:51:11.027Z,101306.97
2022-08-06T03:53:44.852Z,101309.44
2022-08-06T03:56:28.773Z,101308.19
2022-08-06T03:59:04.849Z,101305.41
2022-08-06T04:01:43.165Z,101304.97
2022-08-06T04:04:27.257Z,101316.72
2022-08-06T04:07:00.508Z,101314.72
2022-08-06T04:09:33.851Z,101318.09
2022-08-06T04:12:58.885Z,101313.06
2022-08-06T04:15:08.377Z,101314.13
2022-08-06T04:17:40.524Z,101321.28
2022-08-06T04:20:08.666Z,101319.22
2022-08-06T04:22:59.676Z,101324.31
2022-08-06T04:25:25.124Z,101330.81
2022-08-06T04:27:54.330Z,101324.31
2022-08-06T04:30:27.497Z,101337.66
2022-08-06T04:33:01.194Z,101331.84
2022-08-06T04:36:07.920Z,101349.28
2022-08-06T04:38:28.083Z,101339.03
2022-08-06T04:40:57.560Z,101341.75
2022-08-06T04:43:37.990Z,101342.66
2022-08-06T04:46:16.671Z,101351.31
2022-08-06T04:48:47.925Z,101353.31
2022-08-06T04:51:17.285Z,101363.19
2022-08-06T04:54:06.074Z,101365.69
2022-08-06T04:56:37.486Z,101367.53
2022-08-06T04:59:09.441Z,101375.03
2022-08-06T05:01:40.935Z,101375.91
2022-08-06T05:04:23.747Z,101375.47
2022-08-06T05:06:58.479Z,101391.97
2022-08-06T05:09:42.837Z,101387.34
2022-08-06T05:12:26.453Z,101389.66
2022-08-06T05:15:09.010Z,101388.41
2022-08-06T05:17:39.792Z,101397.41
2022-08-06T05:20:26.308Z,101391.78
2022-08-06T05:23:01.332Z,101392.41
2022-08-06T05:25:35.949Z,101396.41
2022-08-06T05:28:11.262Z,101405.41
2022-08-06T05:30:49.844Z,101406.03
2022-08-06T05:33:30.817Z,101400.72
2022-08-06T05:36:02.608Z,101408.78
2022-08-06T05:38:36.432Z,101408.91
2022-08-06T05:41:11.886Z,101404.53
2022-08-06T05:43:59.880Z,101417.09
2022-08-06T05:46:31.121Z,101410.34
2022-08-06T05:49:57.485Z,101424.47
2022-08-06T05:52:26.407Z,101425.06
2022-08-06T05:55:25.604Z,101431.34
2022-08-06T05:58:08.827Z,101427.84
2022-08-06T06:00:43.680Z,101431.41
2022-08-06T06:03:24.578Z,101433.00
2022-08-06T06:06:06.786Z,101432.16
2022-08-06T06:08:57.800Z,101441.03
2022-08-06T06:11:55.431Z,101467.84
2022-08-06T06:14:37.903Z,101455.44
2022-08-06T06:17:20.535Z,101452.09
2022-08-06T06:20:08.660Z,101457.72
2022-08-06T06:23:20.459Z,101455.75
2022-08-06T06:26:32.902Z,101462.63
2022-08-06T06:30:06.273Z,101500.41
2022-08-06T06:32:30.520Z,101472.50
2022-08-06T06:35:22.445Z,101466.81
2022-08-06T06:38:00.438Z,101462.78
2022-08-06T06:40:47.016Z,101465.88
2022-08-06T06:43:49.261Z,101463.88
2022-08-06T06:46:38.566Z,101460.97
2022-08-06T06:50:00.198Z,101472.09
2022-08-06T06:52:12.786Z,101477.09
2022-08-06T06:54:59.620Z,101482.69
2022-08-06T06:57:43.144Z,101484.59
2022-08-06T07:00:45.689Z,101489.50
2022-08-06T07:03:02.763Z,101491.59
2022-08-06T07:06:02.958Z,101498.66
2022-08-06T07:08:32.194Z,101499.97
2022-08-06T07:11:07.282Z,101499.38
2022-08-06T07:13:47.802Z,101504.00
2022-08-06T07:16:35.268Z,101501.66
2022-08-06T07:19:10.234Z,101509.94
2022-08-06T07:21:42.216Z,101508.34
2022-08-06T07:24:35.921Z,101515.72
2022-08-06T07:27:00.908Z,101519.09
2022-08-06T07:29:49.139Z,101521.84
2022-08-06T07:32:31.462Z,101529.91
2022-08-06T07:35:00.585Z,101528.50
2022-08-06T07:37:37.737Z,101530.50
2022-08-06T07:40:10.201Z,101540.06
2022-08-06T07:42:39.181Z,101531.84
2022-08-06T07:45:16.373Z,101547.84
2022-08-06T07:47:54.217Z,101546.81
2022-08-06T07:50:24.831Z,101547.22
2022-08-06T07:52:56.430Z,101546.91
2022-08-06T07:55:37.388Z,101542.34
2022-08-06T07:58:08.548Z,101545.66
2022-08-06T08:00:38.579Z,101556.78
2022-08-06T08:03:55.868Z,101549.13
2022-08-06T08:06:21.578Z,101563.22
2022-08-06T08:08:57.101Z,101555.41
2022-08-06T08:11:38.365Z,101557.53
2022-08-06T08:14:15.482Z,101566.84
2022-08-06T08:16:43.640Z,101585.88
2022-08-06T08:19:35.037Z,101580.34
2022-08-06T08:22:17.349Z,101563.66
2022-08-06T08:24:53.962Z,101566.25
2022-08-06T08:27:23.522Z,101572.91
2022-08-06T08:29:56.869Z,101571.25
2022-08-06T08:32:24.883Z,101583.31
2022-08-06T08:34:53.011Z,101574.25
2022-08-06T08:37:20.770Z,101569.56
2022-08-06T08:39:47.837Z,101582.97
2022-08-06T08:42:38.334Z,101584.25
2022-08-06T08:45:13.078Z,101584.81
2022-08-06T08:47:54.000Z,101593.47
2022-08-06T08:50:28.209Z,101595.75
2022-08-06T08:53:09.582Z,101612.22
2022-08-06T08:57:10.526Z,101597.91
2022-08-06T08:58:41.855Z,101593.41
2022-08-06T09:01:51.345Z,101595.03
2022-08-06T09:03:59.094Z,101595.81
2022-08-06T09:06:30.788Z,101599.78
2022-08-06T09:09:05.519Z,101593.13
2022-08-06T09:12:04.288Z,101612.00
2022-08-06T09:14:28.237Z,101600.50
2022-08-06T09:17:00.862Z,101601.97
2022-08-06T09:19:37.908Z,101619.59
2022-08-06T09:22:08.821Z,101623.13
2022-08-06T09:24:36.889Z,101616.63
2022-08-06T09:27:45.125Z,101621.09
2022-08-06T09:30:00.611Z,101619.22
2022-08-06T09:32:57.057Z,101612.00
2022-08-06T09:35:44.595Z,101627.03
2022-08-06T09:38:17.319Z,101636.00
2022-08-06T09:41:24.251Z,101626.59
2022-08-06T09:44:03.849Z,101639.06
2022-08-06T09:46:49.072Z,101632.19
2022-08-06T09:49:48.059Z,101649.25
2022-08-06T09:52:17.269Z,101645.25
2022-08-06T09:54:46.387Z,101625.22
2022-08-06T09:57:15.336Z,101642.34
2022-08-06T09:59:50.213Z,101649.75
2022-08-06T10:02:23.618Z,101664.81
2022-08-06T10:05:19.536Z,101640.19
2022-08-06T10:08:13.958Z,101653.03
2022-08-06T10:10:52.357Z,101653.06
2022-08-06T10:13:39.271Z,101647.91
2022-08-06T10:16:20.609Z,101643.75
2022-08-06T10:18:55.452Z,101640.47
2022-08-06T10:21:41.769Z,101645.41
2022-08-06T10:24:26.167Z,101660.75
2022-08-06T10:27:15.156Z,101651.84
2022-08-06T10:29:43.381Z,101668.28
2022-08-06T10:32:15.847Z,101677.97
2022-08-06T10:34:45.656Z,101664.59
2022-08-06T10:37:49.608Z,101662.66
2022-08-06T10:40:09.868Z,101655.03
2022-08-06T10:42:40.379Z,101662.22
2022-08-06T10:45:13.277Z,101660.38
2022-08-06T10:48:58.967Z,101668.50
2022-08-06T10:50:44.702Z,101664.84
2022-08-06T10:53:20.621Z,101669.13
2022-08-06T10:56:08.919Z,101667.69
2022-08-06T10:58:37.839Z,101699.06
2022-08-06T11:01:16.030Z,101655.59
2022-08-06T11:04:26.354Z,101663.97
2022-08-06T11:06:53.331Z,101660.03
2022-08-06T11:09:59.854Z,101660.88
2022-08-06T11:12:41.262Z,101655.38
2022-08-06T11:15:17.973Z,101657.38
2022-08-06T11:18:03.477Z,101665.59
2022-08-06T11:20:37.399Z,101685.91
2022-08-06T11:23:11.839Z,101666.63
2022-08-06T11:25:58.933Z,101645.41
2022-08-06T11:28:29.806Z,101658.34
2022-08-06T11:31:03.057Z,101653.81
2022-08-06T11:33:36.447Z,101657.16
2022-08-06T11:36:10.779Z,101658.13
2022-08-06T11:38:48.477Z,101663.28
2022-08-06T11:41:55.398Z,101664.63
2022-08-06T11:44:38.484Z,101678.03
2022-08-06T11:47:14.106Z,101659.94
2022-08-06T11:49:44.867Z,101661.00
2022-08-06T11:52:34.305Z,101650.47
2022-08-06T11:55:08.483Z,101657.97
2022-08-06T11:57:42.047Z,101648.66
2022-08-06T12:00:20.993Z,101647.22
2022-08-06T12:02:56.672Z,101656.13
2022-08-06T12:05:23.943Z,101651.09
2022-08-06T12:08:14.514Z,101645.50
2022-08-06T12:11:20.543Z,101649.00
2022-08-06T12:13:57.546Z,101658.88
2022-08-06T12:16:39.423Z,101651.97
2022-08-06T12:19:12.982Z,101646.09
2022-08-06T12:21:44.676Z,101649.38
2022-08-06T12:24:15.929Z,101653.13
2022-08-06T12:26:43.910Z,101664.06
2022-08-06T12:29:11.202Z,101660.31
2022-08-06T12:31:50.237Z,101644.44
2022-08-06T12:34:27.881Z,101661.94
2022-08-06T12:36:55.050Z,101642.91
2022-08-06T12:39:45.677Z,101633.44
2022-08-06T12:42:53.202Z,101650.88
2022-08-06T12:46:04.359Z,101646.31
2022-08-06T12:48:11.322Z,101641.41
2022-08-06T12:50:43.403Z,101647.13
2022-08-06T12:53:15.418Z,101656.59
2022-08-06T12:55:55.771Z,101643.22
2022-08-06T12:58:42.416Z,101645.13
2022-08-06T13:02:08.654Z,101664.91
2022-08-06T13:04:09.183Z,101652.88
2022-08-06T13:06:37.762Z,101637.09
2022-08-06T13:09:08.151Z,101646.31
2022-08-06T13:11:41.628Z,101640.63
2022-08-06T13:14:18.437Z,101647.72
2022-08-06T13:16:57.221Z,101649.13
2022-08-06T13:19:28.208Z,101657.47
2022-08-06T13:22:03.005Z,101643.81
2022-08-06T13:24:30.945Z,101648.91
2022-08-06T13:27:03.009Z,101651.03
2022-08-06T13:30:30.715Z,101656.06
2022-08-06T13:32:33.339Z,101657.06
2022-08-06T13:35:17.853Z,101657.72
2022-08-06T13:37:57.544Z,101646.31
2022-08-06T13:40:41.947Z,101651.53
2022-08-06T13:43:39.819Z,101637.94
2022-08-06T13:46:15.369Z,101653.66
2022-08-06T13:48:49.710Z,101662.66
2022-08-06T13:51:27.275Z,101653.31
2022-08-06T13:53:57.460Z,101652.28
2022-08-06T13:56:29.103Z,101647.16
2022-08-06T13:58:58.880Z,101654.81
2022-08-06T14:01:44.126Z,101666.78
2022-08-06T14:04:14.210Z,101647.44
2022-08-06T14:06:44.843Z,101656.66
2022-08-06T14:09:19.392Z,101658.09
2022-08-06T14:11:58.506Z,101653.81
2022-08-06T14:14:27.808Z,101661.28
2022-08-06T14:16:57.080Z,101651.22
2022-08-06T14:20:14.740Z,101661.09
2022-08-06T14:22:11.149Z,101665.16
2022-08-06T14:24:39.378Z,101651.44
2022-08-06T14:27:14.870Z,101668.66
2022-08-06T14:30:27.718Z,101662.66
2022-08-06T14:32:32.352Z,101663.63
2022-08-06T14:35:03.644Z,101654.75
2022-08-06T14:37:43.316Z,101654.88
2022-08-06T14:40:23.726Z,101658.41
2022-08-06T14:43:17.569Z,101659.84
2022-08-06T14:45:44.210Z,101661.22
2022-08-06T14:48:10.983Z,101663.53
2022-08-06T14:50:42.077Z,101661.59
2022-08-06T14:53:16.257Z,101652.03
2022-08-06T14:56:07.016Z,101657.69
2022-08-06T14:58:32.168Z,101650.91
2022-08-06T15:00:59.197Z,101657.78
2022-08-06T15:03:33.231Z,101649.38
2022-08-06T15:06:06.198Z,101660.00
2022-08-06T15:08:35.700Z,101645.00
2022-08-06T15:11:05.860Z,101644.91
2022-08-06T15:13:36.906Z,101650.91
2022-08-06T15:16:11.027Z,101638.50
2022-08-06T15:19:10.321Z,101658.94
2022-08-06T15:21:51.071Z,101645.97
2022-08-06T15:24:21.718Z,101670.91
2022-08-06T15:26:51.824Z,101649.72
2022-08-06T15:29:25.420Z,101650.72
2022-08-06T15:31:52.309Z,101648.97
2022-08-06T15:34:20.251Z,101663.16
2022-08-06T15:37:02.938Z,101665.13
2022-08-06T15:39:53.139Z,101648.72
2022-08-06T15:42:23.830Z,101652.91
2022-08-06T15:44:54.454Z,101657.75
2022-08-06T15:47:32.035Z,101657.00
2022-08-06T15:50:03.176Z,101655.53
2022-08-06T15:52:33.595Z,101655.31
2022-08-06T15:55:16.528Z,101662.28
2022-08-06T15:58:06.837Z,101655.97
2022-08-06T16:00:36.590Z,101655.97
2022-08-06T16:03:06.613Z,101658.00
2022-08-06T16:06:11.096Z,101673.03
2022-08-06T16:08:22.989Z,101656.53
2022-08-06T16:11:02.571Z,101675.25
2022-08-06T16:13:36.295Z,101663.25
2022-08-06T16:16:05.799Z,101658.94
2022-08-06T16:18:34.118Z,101671.38
2022-08-06T16:21:05.977Z,101664.22
2022-08-06T16:23:55.708Z,101653.19
2022-08-06T16:26:40.611Z,101655.66
2022-08-06T16:29:08.761Z,101664.94
2022-08-06T16:31:38.028Z,101666.81
2022-08-06T16:34:14.458Z,101670.28
2022-08-06T16:36:42.714Z,101667.41
2022-08-06T16:39:12.495Z,101661.00
2022-08-06T16:41:58.998Z,101671.66
2022-08-06T16:44:34.805Z,101666.47
2022-08-06T16:47:06.552Z,101669.56
2022-08-06T16:49:59.348Z,101678.97
2022-08-06T16:52:42.768Z,101682.22
2022-08-06T16:55:09.222Z,101673.13
2022-08-06T16:57:37.967Z,101675.28
2022-08-06T17:00:09.278Z,101674.34
2022-08-06T17:02:42.354Z,101677.22
2022-08-06T17:05:21.635Z,101670.81
2022-08-06T17:10:39.724Z,101684.56
2022-08-06T17:13:09.154Z,101685.06
2022-08-06T17:15:37.570Z,101690.28
2022-08-06T17:18:04.961Z,101685.44
2022-08-06T17:20:31.704Z,101702.94
2022-08-06T17:25:50.948Z,101685.09
2022-08-06T17:28:18.382Z,101682.47
2022-08-06T17:30:45.044Z,101693.34
2022-08-06T17:33:19.580Z,101695.91
2022-08-06T17:36:30.691Z,101701.16
2022-08-06T17:38:36.569Z,101692.03
2022-08-06T17:41:11.687Z,101695.16
2022-08-06T17:43:56.128Z,101705.78
2022-08-06T17:46:26.511Z,101694.19
2022-08-06T17:48:54.890Z,101696.56
2022-08-06T17:51:23.074Z,101691.88
2022-08-06T17:53:53.174Z,101701.00
2022-08-06T17:56:29.775Z,101700.50
2022-08-06T17:59:16.930Z,101696.72
2022-08-06T18:01:49.958Z,101709.41
2022-08-06T18:04:31.060Z,101702.66
2022-08-06T18:07:11.693Z,101708.97
2022-08-06T18:10:10.474Z,101717.38
2022-08-06T18:12:31.720Z,101711.09
2022-08-06T18:14:59.294Z,101723.97
2022-08-06T18:17:59.581Z,101729.47
2022-08-06T18:20:13.097Z,101732.25
2022-08-06T18:22:43.641Z,101724.22
2022-08-06T18:25:14.980Z,101726.88
2022-08-06T18:27:55.597Z,101734.84
2022-08-06T18:30:36.594Z,101734.31
2022-08-06T18:33:12.778Z,101725.53
2022-08-06T18:35:45.877Z,101723.81
2022-08-06T18:38:32.225Z,101730.22
2022-08-06T18:41:06.268Z,101733.06
2022-08-06T18:43:49.763Z,101732.19
2022-08-06T18:46:56.230Z,101739.50
2022-08-06T18:49:26.879Z,101729.19
2022-08-06T18:52:05.970Z,101734.25
2022-08-06T18:54:56.969Z,101736.91
2022-08-06T18:57:38.170Z,101730.88
2022-08-06T19:00:18.405Z,101730.03
2022-08-06T19:02:48.884Z,101735.66
2022-08-06T19:05:17.109Z,101739.69
2022-08-06T19:07:53.750Z,101739.47
2022-08-06T19:10:24.345Z,101741.56
2022-08-06T19:12:54.753Z,101740.47
2022-08-06T19:15:24.388Z,101745.22
2022-08-06T19:18:14.372Z,101737.53
2022-08-06T19:20:38.127Z,101737.13
2022-08-06T19:23:06.483Z,101745.56
2022-08-06T19:25:52.090Z,101742.19
2022-08-06T19:28:34.736Z,101758.31
2022-08-06T19:31:06.992Z,101765.78
2022-08-06T19:33:37.159Z,101751.06
2022-08-06T19:36:30.828Z,101758.94
2022-08-06T19:38:53.593Z,101763.06
2022-08-06T19:42:00.210Z,101763.16
2022-08-06T19:44:28.185Z,101762.88
2022-08-06T19:46:56.358Z,101758.09
2022-08-06T19:49:23.400Z,101757.38
2022-08-06T19:52:04.648Z,101772.66
2022-08-06T19:54:35.718Z,101761.81
2022-08-06T19:57:06.390Z,101766.00
2022-08-06T20:00:51.251Z,101769.69
2022-08-06T20:02:28.717Z,101764.97
2022-08-06T20:04:57.548Z,101774.63
2022-08-06T20:07:34.388Z,101763.53
2022-08-06T20:10:03.145Z,101768.72
2022-08-06T20:12:38.267Z,101766.00
2022-08-06T20:15:08.958Z,101767.13
2022-08-06T20:17:45.944Z,101756.59
2022-08-06T20:20:29.141Z,101761.59
2022-08-06T20:23:08.421Z,101768.41
2022-08-06T20:26:10.442Z,101765.06
2022-08-06T20:29:08.113Z,101769.53
2022-08-06T20:31:16.715Z,101778.69
2022-08-06T20:33:58.986Z,101778.03
2022-08-06T20:36:30.687Z,101771.97
2022-08-06T20:38:58.243Z,101776.34
2022-08-06T20:41:57.560Z,101782.13
2022-08-06T20:44:14.305Z,101778.69
2022-08-06T20:47:44.313Z,101785.63
2022-08-06T20:50:03.839Z,101796.94
2022-08-06T20:52:19.228Z,101795.06
2022-08-06T20:54:51.791Z,101789.78
2022-08-06T20:57:27.772Z,101795.59
2022-08-06T20:59:58.211Z,101801.88
2022-08-06T21:02:31.849Z,101803.00
2022-08-06T21:05:14.082Z,101800.28
2022-08-06T21:07:57.788Z,101801.94
2022-08-06T21:10:31.181Z,101800.66
2022-08-06T21:13:06.722Z,101798.47
2022-08-06T21:15:54.483Z,101800.34
2022-08-06T21:18:24.022Z,101799.41
2022-08-06T21:20:53.146Z,101798.78
2022-08-06T21:23:42.088Z,101796.25
2022-08-06T21:26:08.309Z,101794.28
2022-08-06T21:28:42.212Z,101792.19
2022-08-06T21:31:10.421Z,101798.66
2022-08-06T21:33:52.748Z,101797.94
2022-08-06T21:36:26.905Z,101800.56
2022-08-06T21:38:58.078Z,101798.63
2022-08-06T21:41:58.385Z,101802.72
2022-08-06T21:44:24.178Z,101801.38
2022-08-06T21:46:58.612Z,101790.66
2022-08-06T21:50:00.458Z,101795.56
2022-08-06T21:52:27.518Z,101805.91
2022-08-06T21:54:57.440Z,101811.53
2022-08-06T21:57:25.327Z,101799.13
2022-08-06T21:59:53.313Z,101808.16
2022-08-06T22:02:28.041Z,101816.22
2022-08-06T22:05:00.497Z,101810.88
2022-08-06T22:08:04.611Z,101819.03
2022-08-06T22:10:28.862Z,101816.13
2022-08-06T22:13:12.260Z,101810.22
2022-08-06T22:15:46.743Z,101802.53
2022-08-06T22:18:16.795Z,101803.28
2022-08-06T22:20:45.845Z,101812.22
2022-08-06T22:23:15.936Z,101821.31
2022-08-06T22:25:43.061Z,101817.75
2022-08-06T22:28:11.727Z,101806.50
2022-08-06T22:30:52.568Z,101808.38
2022-08-06T22:33:23.647Z,101810.81
2022-08-06T22:35:58.464Z,101814.78
2022-08-06T22:38:39.008Z,101819.63
2022-08-06T22:41:05.666Z,101809.97
2022-08-06T22:43:51.880Z,101806.31
2022-08-06T22:46:25.527Z,101806.97
2022-08-06T22:48:52.984Z,101804.16
2022-08-06T22:51:28.705Z,101804.44
2022-08-06T22:54:29.561Z,101805.66
2022-08-06T22:57:05.048Z,101810.91
2022-08-06T23:00:06.959Z,101808.84
2022-08-06T23:02:19.678Z,101811.22
2022-08-06T23:04:46.764Z,101814.66
2022-08-06T23:07:21.443Z,101824.72
2022-08-06T23:09:53.660Z,101812.91
2022-08-06T23:12:25.399Z,101815.00
2022-08-06T23:14:59.034Z,101810.00
2022-08-06T23:17:26.158Z,101815.34
2022-08-06T23:20:11.809Z,101807.56
2022-08-06T23:22:39.443Z,101802.53
2022-08-06T23:26:02.068Z,101802.41
2022-08-06T23:27:54.923Z,101810.28
2022-08-06T23:30:22.120Z,101805.03
2022-08-06T23:32:49.466Z,101813.94
2022-08-06T23:35:35.830Z,101803.53
2022-08-06T23:38:31.376Z,101802.91
2022-08-06T23:40:51.846Z,101801.22
2022-08-06T23:43:19.439Z,101803.84
2022-08-06T23:45:47.201Z,101807.31
2022-08-06T23:48:15.201Z,101802.25
2022-08-06T23:50:52.895Z,101802.34
2022-08-06T23:54:06.359Z,101806.63
2022-08-06T23:56:13.120Z,101801.22
2022-08-06T23:58:49.018Z,101804.13
